createdAt,value
2018-07-27T00:01:20.723Z,59.06
2018-07-27T00:03:49.599Z,58.71
2018-07-27T00:06:18.859Z,59.67
2018-07-27T00:08:47.497Z,59.03
2018-07-27T00:11:16.126Z,59.17
2018-07-27T00:13:45.429Z,59.91
2018-07-27T00:16:14.270Z,59.47
2018-07-27T00:18:42.883Z,60.01
2018-07-27T00:21:11.475Z,59.76
2018-07-27T00:23:40.236Z,59.82
2018-07-27T00:26:09.420Z,59.63
2018-07-27T00:28:37.919Z,60.61
2018-07-27T00:31:06.871Z,60.23
2018-07-27T00:33:35.390Z,60.51
2018-07-27T00:36:03.940Z,60.41
2018-07-27T00:38:32.466Z,60.37
2018-07-27T00:41:01.051Z,60.24
2018-07-27T00:43:30.175Z,60.25
2018-07-27T00:45:58.801Z,60.06
2018-07-27T00:48:27.426Z,60.39
2018-07-27T00:50:55.974Z,60.32
2018-07-27T00:53:24.615Z,60.68
2018-07-27T00:55:53.235Z,60.17
2018-07-27T00:58:21.817Z,60.67
2018-07-27T01:00:50.503Z,60.29
2018-07-27T01:03:19.123Z,60.04
2018-07-27T01:05:47.771Z,60.68
2018-07-27T01:08:16.396Z,61.04
2018-07-27T01:10:44.980Z,61.16
2018-07-27T01:13:13.504Z,60.97
2018-07-27T01:15:42.130Z,61.19
2018-07-27T01:18:10.658Z,61.27
2018-07-27T01:20:40.292Z,61.30
2018-07-27T01:23:09.144Z,61.79
2018-07-27T01:25:37.867Z,62.07
2018-07-27T01:28:06.804Z,61.61
2018-07-27T01:30:35.385Z,62.08
2018-07-27T01:33:04.128Z,62.03
2018-07-27T01:35:32.813Z,62.31
2018-07-27T01:38:01.366Z,62.68
2018-07-27T01:40:30.014Z,62.62
2018-07-27T01:42:58.664Z,62.51
2018-07-27T01:45:27.350Z,62.40
2018-07-27T01:47:55.886Z,62.76
2018-07-27T01:50:24.516Z,62.70
2018-07-27T01:52:53.021Z,63.29
2018-07-27T01:55:21.886Z,63.64
2018-07-27T01:57:50.468Z,63.40
2018-07-27T02:00:19.098Z,63.30
2018-07-27T02:02:47.737Z,63.13
2018-07-27T02:05:16.422Z,63.12
2018-07-27T02:07:45.054Z,63.30
2018-07-27T02:10:13.691Z,63.04
2018-07-27T02:12:42.273Z,63.68
2018-07-27T02:15:11.330Z,63.48
2018-07-27T02:17:40.361Z,62.95
2018-07-27T02:20:09.090Z,63.63
2018-07-27T02:22:37.732Z,63.44
2018-07-27T02:25:06.522Z,63.18
2018-07-27T02:27:35.820Z,63.29
2018-07-27T02:30:05.168Z,63.15
2018-07-27T02:32:33.803Z,63.23
2018-07-27T02:35:02.390Z,62.96
2018-07-27T02:37:30.907Z,63.36
2018-07-27T02:39:59.515Z,62.44
2018-07-27T02:42:28.134Z,62.47
2018-07-27T02:44:56.821Z,62.17
2018-07-27T02:47:25.404Z,62.14
2018-07-27T02:49:54.008Z,62.40
2018-07-27T02:52:22.671Z,61.95
2018-07-27T02:54:51.358Z,62.16
2018-07-27T02:57:19.941Z,61.81
2018-07-27T02:59:48.524Z,62.06
2018-07-27T03:02:17.155Z,62.06
2018-07-27T03:04:45.706Z,62.11
2018-07-27T03:07:14.268Z,61.79
2018-07-27T03:09:43.054Z,61.91
2018-07-27T03:12:11.540Z,61.85
2018-07-27T03:14:40.139Z,62.13
2018-07-27T03:17:08.808Z,62.06
2018-07-27T03:19:37.492Z,61.91
2018-07-27T03:22:06.077Z,62.11
2018-07-27T03:24:34.606Z,62.41
2018-07-27T03:27:03.175Z,62.26
2018-07-27T03:29:31.882Z,62.13
2018-07-27T03:32:00.510Z,62.09
2018-07-27T03:34:29.146Z,61.59
2018-07-27T03:36:57.987Z,61.63
2018-07-27T03:39:26.566Z,61.54
2018-07-27T03:41:55.055Z,61.59
2018-07-27T03:44:23.663Z,61.56
2018-07-27T03:46:52.219Z,61.37
2018-07-27T03:49:20.800Z,60.92
2018-07-27T03:51:49.380Z,60.82
2018-07-27T03:54:17.950Z,60.75
2018-07-27T03:56:46.445Z,60.83
2018-07-27T03:59:15.127Z,61.18
2018-07-27T04:01:43.694Z,61.16
2018-07-27T04:04:12.292Z,61.52
2018-07-27T04:06:40.979Z,61.15
2018-07-27T04:09:10.218Z,61.22
2018-07-27T04:11:39.342Z,61.25
2018-07-27T04:14:08.415Z,61.17
2018-07-27T04:16:36.986Z,61.20
2018-07-27T04:19:05.736Z,61.82
2018-07-27T04:21:34.420Z,61.21
2018-07-27T04:24:03.043Z,61.21
2018-07-27T04:26:31.689Z,60.99
2018-07-27T04:29:00.182Z,60.40
2018-07-27T04:31:28.752Z,60.06
2018-07-27T04:33:57.540Z,59.78
2018-07-27T04:36:26.080Z,59.32
2018-07-27T04:38:54.910Z,59.37
2018-07-27T04:41:23.519Z,59.04
2018-07-27T04:43:52.177Z,58.50
2018-07-27T04:46:20.863Z,58.84
2018-07-27T04:48:49.550Z,57.84
2018-07-27T04:51:18.235Z,57.71
2018-07-27T04:53:46.821Z,57.64
2018-07-27T04:56:15.531Z,57.22
2018-07-27T04:58:45.213Z,57.34
2018-07-27T05:01:13.899Z,57.65
2018-07-27T05:03:42.547Z,57.45
2018-07-27T05:06:11.169Z,58.16
2018-07-27T05:08:44.994Z,58.36
2018-07-27T05:11:13.619Z,57.46
2018-07-27T05:13:42.266Z,56.12
2018-07-27T05:16:10.924Z,55.90
2018-07-27T05:18:39.508Z,55.40
2018-07-27T05:21:08.133Z,54.78
2018-07-27T05:23:36.638Z,54.80
2018-07-27T05:26:05.356Z,54.19
2018-07-27T05:28:33.850Z,54.00
2018-07-27T05:31:02.462Z,53.55
2018-07-27T05:33:31.105Z,53.00
2018-07-27T05:36:00.201Z,52.49
2018-07-27T05:38:28.726Z,52.85
2018-07-27T05:40:57.570Z,52.27
2018-07-27T05:43:26.155Z,52.08
2018-07-27T05:45:54.838Z,52.47
2018-07-27T05:48:23.421Z,51.86
2018-07-27T05:50:52.210Z,52.20
2018-07-27T05:53:20.898Z,51.65
2018-07-27T05:55:49.486Z,51.96
2018-07-27T05:58:18.105Z,52.50
2018-07-27T06:00:46.690Z,52.39
2018-07-27T06:03:15.264Z,52.86
2018-07-27T06:05:43.912Z,52.68
2018-07-27T06:08:12.496Z,52.95
2018-07-27T06:10:41.123Z,52.60
2018-07-27T06:13:09.707Z,52.98
2018-07-27T06:15:38.272Z,52.87
2018-07-27T06:18:07.134Z,53.19
2018-07-27T06:20:36.022Z,53.10
2018-07-27T06:23:04.549Z,53.37
2018-07-27T06:25:33.239Z,54.60
2018-07-27T06:28:01.819Z,53.56
2018-07-27T06:30:30.401Z,54.41
2018-07-27T06:32:58.996Z,54.69
2018-07-27T06:35:27.571Z,54.42
2018-07-27T06:37:56.206Z,53.81
2018-07-27T06:40:24.736Z,54.17
2018-07-27T06:42:53.271Z,54.46
2018-07-27T06:45:22.409Z,53.92
2018-07-27T06:47:51.014Z,54.37
2018-07-27T06:50:19.736Z,54.19
2018-07-27T06:52:49.243Z,53.82
2018-07-27T06:55:17.867Z,54.46
2018-07-27T06:57:46.580Z,54.36
2018-07-27T07:00:15.143Z,53.70
2018-07-27T07:02:43.782Z,54.17
2018-07-27T07:05:12.294Z,53.44
2018-07-27T07:07:40.843Z,53.33
2018-07-27T07:10:09.582Z,53.58
2018-07-27T07:12:38.118Z,53.43
2018-07-27T07:15:08.741Z,53.13
2018-07-27T07:17:37.413Z,53.67
2018-07-27T07:20:07.594Z,53.68
2018-07-27T07:22:36.089Z,53.16
2018-07-27T07:25:04.988Z,52.89
2018-07-27T07:27:33.601Z,52.28
2018-07-27T07:30:02.145Z,52.64
2018-07-27T07:32:30.687Z,52.10
2018-07-27T07:34:59.348Z,52.34
2018-07-27T07:37:28.036Z,51.30
2018-07-27T07:39:56.550Z,51.31
2018-07-27T07:42:25.138Z,50.79
2018-07-27T07:44:53.931Z,51.10
2018-07-27T07:47:22.504Z,50.18
2018-07-27T07:49:51.360Z,49.53
2018-07-27T07:52:20.004Z,49.34
2018-07-27T07:54:48.675Z,48.93
2018-07-27T07:57:17.313Z,49.66
2018-07-27T07:59:45.934Z,48.62
2018-07-27T08:02:14.506Z,48.45
2018-07-27T08:04:43.084Z,49.01
2018-07-27T08:07:11.746Z,48.07
2018-07-27T08:09:40.255Z,48.71
2018-07-27T08:12:08.911Z,48.23
2018-07-27T08:14:37.492Z,47.99
2018-07-27T08:17:06.179Z,47.43
2018-07-27T08:19:34.864Z,47.39
2018-07-27T08:22:03.521Z,48.04
2018-07-27T08:24:32.123Z,47.32
2018-07-27T08:27:02.559Z,48.19
2018-07-27T08:29:32.473Z,48.48
2018-07-27T08:32:01.551Z,47.38
2018-07-27T08:34:30.176Z,46.93
2018-07-27T08:36:58.835Z,45.68
2018-07-27T08:39:32.639Z,46.67
2018-07-27T08:42:01.167Z,46.72
2018-07-27T08:44:30.963Z,45.84
2018-07-27T08:46:59.720Z,46.01
2018-07-27T08:49:28.303Z,45.17
2018-07-27T08:51:56.869Z,46.37
2018-07-27T08:54:25.469Z,46.69
2018-07-27T08:56:54.051Z,47.10
2018-07-27T08:59:22.682Z,47.03
2018-07-27T09:01:51.322Z,47.17
2018-07-27T09:04:20.006Z,47.23
2018-07-27T09:06:48.706Z,47.88
2018-07-27T09:09:18.791Z,47.98
2018-07-27T09:11:47.473Z,48.66
2018-07-27T09:14:16.590Z,48.72
2018-07-27T09:16:45.966Z,48.57
2018-07-27T09:19:14.474Z,48.67
2018-07-27T09:21:44.535Z,49.46
2018-07-27T09:24:13.266Z,49.53
2018-07-27T09:26:42.013Z,49.79
2018-07-27T09:29:10.584Z,48.95
2018-07-27T09:31:39.229Z,48.90
2018-07-27T09:34:07.955Z,48.13
2018-07-27T09:36:36.498Z,47.74
2018-07-27T09:39:08.430Z,47.75
2018-07-27T09:41:37.294Z,47.18
2018-07-27T09:44:06.003Z,47.26
2018-07-27T09:46:35.027Z,47.69
2018-07-27T09:49:03.933Z,47.47
2018-07-27T09:51:32.563Z,47.13
2018-07-27T09:54:01.167Z,48.05
2018-07-27T09:56:30.179Z,47.51
2018-07-27T09:58:58.691Z,47.56
2018-07-27T10:01:28.642Z,47.85
2018-07-27T10:03:57.253Z,47.27
2018-07-27T10:06:25.836Z,47.36
2018-07-27T10:08:54.363Z,48.21
2018-07-27T10:11:22.908Z,47.50
2018-07-27T10:13:51.530Z,47.27
2018-07-27T10:16:20.175Z,46.95
2018-07-27T10:18:48.795Z,47.53
2018-07-27T10:21:17.341Z,47.75
2018-07-27T10:23:45.921Z,47.71
2018-07-27T10:26:14.519Z,48.24
2018-07-27T10:28:43.140Z,46.96
2018-07-27T10:31:11.790Z,47.55
2018-07-27T10:33:40.386Z,47.85
2018-07-27T10:36:08.940Z,46.75
2018-07-27T10:38:37.583Z,46.56
2018-07-27T10:41:06.122Z,46.43
2018-07-27T10:43:34.789Z,46.26
2018-07-27T10:46:03.474Z,47.03
2018-07-27T10:48:32.045Z,46.62
2018-07-27T10:51:00.556Z,45.47
2018-07-27T10:53:29.292Z,46.38
2018-07-27T10:55:57.867Z,45.74
2018-07-27T10:58:26.495Z,45.68
2018-07-27T11:00:55.030Z,45.76
2018-07-27T11:03:23.658Z,45.64
2018-07-27T11:05:52.343Z,46.04
2018-07-27T11:08:20.929Z,45.96
2018-07-27T11:10:49.578Z,45.98
2018-07-27T11:13:18.196Z,46.49
2018-07-27T11:15:47.392Z,46.38
2018-07-27T11:18:15.982Z,46.23
2018-07-27T11:20:44.527Z,45.62
2018-07-27T11:23:13.135Z,46.07
2018-07-27T11:25:41.730Z,46.01
2018-07-27T11:28:10.306Z,45.64
2018-07-27T11:30:38.847Z,46.11
2018-07-27T11:33:07.387Z,45.44
2018-07-27T11:35:35.952Z,45.88
2018-07-27T11:38:04.636Z,45.64
2018-07-27T11:40:33.322Z,45.26
2018-07-27T11:43:01.837Z,45.71
2018-07-27T11:45:30.387Z,45.15
2018-07-27T11:47:58.969Z,45.30
2018-07-27T11:50:28.166Z,45.25
2018-07-27T11:52:56.919Z,44.45
2018-07-27T11:55:25.538Z,44.18
2018-07-27T11:57:54.120Z,44.47
2018-07-27T12:00:22.768Z,44.79
2018-07-27T12:02:51.343Z,44.90
2018-07-27T12:05:19.894Z,44.78
2018-07-27T12:07:48.641Z,45.26
2018-07-27T12:10:17.176Z,45.25
2018-07-27T12:12:45.719Z,44.97
2018-07-27T12:15:14.654Z,45.49
2018-07-27T12:17:42.930Z,44.84
2018-07-27T12:20:11.574Z,45.72
2018-07-27T12:22:40.260Z,45.42
2018-07-27T12:25:08.838Z,45.40
2018-07-27T12:27:37.524Z,45.54
2018-07-27T12:30:06.470Z,45.01
2018-07-27T12:32:35.152Z,44.71
2018-07-27T12:35:03.783Z,44.32
2018-07-27T12:37:32.418Z,43.95
2018-07-27T12:40:00.950Z,44.46
2018-07-27T12:42:29.639Z,43.88
2018-07-27T12:44:58.173Z,45.39
2018-07-27T12:47:26.802Z,45.39
2018-07-27T12:49:55.311Z,44.66
2018-07-27T12:52:24.071Z,45.33
2018-07-27T12:54:52.798Z,45.65
2018-07-27T12:57:21.441Z,45.68
2018-07-27T12:59:50.126Z,45.08
2018-07-27T13:02:18.655Z,43.55
2018-07-27T13:04:47.206Z,44.37
2018-07-27T13:07:15.875Z,43.32
2018-07-27T13:09:44.474Z,43.84
2018-07-27T13:12:13.148Z,42.61
2018-07-27T13:14:41.730Z,42.44
2018-07-27T13:17:10.313Z,42.37
2018-07-27T13:19:39.038Z,42.48
2018-07-27T13:22:07.750Z,41.31
2018-07-27T13:25:02.878Z,41.81
2018-07-27T13:27:05.153Z,40.84
2018-07-27T13:29:33.838Z,40.73
2018-07-27T13:32:02.359Z,40.59
2018-07-27T13:34:39.124Z,40.61
2018-07-27T13:37:07.839Z,40.58
2018-07-27T13:39:37.225Z,40.16
2018-07-27T13:42:06.685Z,40.25
2018-07-27T13:44:36.394Z,41.18
2018-07-27T13:47:05.796Z,41.55
2018-07-27T13:49:34.434Z,41.33
2018-07-27T13:52:03.167Z,40.93
2018-07-27T13:54:32.857Z,42.69
2018-07-27T13:57:01.864Z,42.90
2018-07-27T13:59:30.756Z,43.21
2018-07-27T14:01:59.395Z,43.65
2018-07-27T14:04:27.954Z,42.71
2018-07-27T14:06:58.350Z,42.58
2018-07-27T14:09:26.880Z,42.67
2018-07-27T14:11:55.479Z,41.27
2018-07-27T14:14:25.073Z,42.04
2018-07-27T14:16:53.607Z,42.29
2018-07-27T14:19:22.902Z,41.34
2018-07-27T14:21:51.670Z,41.71
2018-07-27T14:24:20.583Z,41.00
2018-07-27T14:26:49.251Z,41.41
2018-07-27T14:29:17.924Z,40.87
2018-07-27T14:31:46.534Z,41.43
2018-07-27T14:34:15.118Z,41.03
2018-07-27T14:36:43.743Z,41.29
2018-07-27T14:39:14.174Z,42.34
2018-07-27T14:41:44.042Z,41.51
2018-07-27T14:44:12.779Z,41.19
2018-07-27T14:46:41.411Z,40.78
2018-07-27T14:49:10.810Z,39.86
2018-07-27T14:51:40.042Z,40.43
2018-07-27T14:54:09.967Z,40.78
2018-07-27T14:56:39.070Z,39.14
2018-07-27T14:59:07.917Z,39.31
2018-07-27T15:01:36.560Z,39.39
2018-07-27T15:04:05.179Z,39.46
2018-07-27T15:06:33.871Z,39.89
2018-07-27T15:09:02.869Z,38.80
2018-07-27T15:11:31.519Z,38.97
2018-07-27T15:14:00.075Z,38.64
2018-07-27T15:16:28.810Z,38.38
2018-07-27T15:18:57.454Z,37.88
2018-07-27T15:21:26.282Z,38.29
2018-07-27T15:23:54.920Z,39.11
2018-07-27T15:26:23.653Z,39.18
2018-07-27T15:28:52.853Z,38.33
2018-07-27T15:31:21.538Z,38.23
2018-07-27T15:33:50.224Z,37.24
2018-07-27T15:36:19.010Z,37.27
2018-07-27T15:38:47.615Z,38.05
2018-07-27T15:41:16.323Z,38.46
2018-07-27T15:43:44.891Z,37.01
2018-07-27T15:46:13.559Z,37.25
2018-07-27T15:48:42.234Z,37.11
2018-07-27T15:51:11.022Z,36.88
2018-07-27T15:53:39.667Z,37.70
2018-07-27T15:56:08.493Z,37.20
2018-07-27T15:58:37.022Z,38.14
2018-07-27T16:01:05.719Z,38.42
2018-07-27T16:03:34.449Z,38.20
2018-07-27T16:06:03.032Z,39.04
2018-07-27T16:08:32.330Z,38.94
2018-07-27T16:11:00.913Z,38.46
2018-07-27T16:13:29.439Z,38.63
2018-07-27T16:15:58.136Z,39.06
2018-07-27T16:18:27.214Z,39.28
2018-07-27T16:20:55.857Z,39.11
2018-07-27T16:23:24.558Z,38.68
2018-07-27T16:25:53.062Z,38.77
2018-07-27T16:28:21.763Z,38.84
2018-07-27T16:30:50.399Z,39.05
2018-07-27T16:33:19.189Z,38.44
2018-07-27T16:35:47.875Z,37.75
2018-07-27T16:38:16.474Z,38.20
2018-07-27T16:40:45.168Z,37.54
2018-07-27T16:43:13.825Z,37.32
2018-07-27T16:45:42.567Z,38.07
2018-07-27T16:48:11.194Z,38.05
2018-07-27T16:50:39.775Z,38.14
2018-07-27T16:53:08.563Z,39.17
2018-07-27T16:55:37.145Z,38.17
2018-07-27T16:58:05.746Z,38.04
2018-07-27T17:00:34.359Z,38.50
2018-07-27T17:03:02.955Z,38.65
2018-07-27T17:05:31.580Z,38.59
2018-07-27T17:08:00.177Z,39.12
2018-07-27T17:10:28.948Z,38.80
2018-07-27T17:12:57.452Z,39.19
2018-07-27T17:15:26.076Z,39.32
2018-07-27T17:17:54.639Z,38.60
2018-07-27T17:20:23.300Z,38.89
2018-07-27T17:22:51.888Z,39.18
2018-07-27T17:25:21.150Z,39.14
2018-07-27T17:27:49.691Z,39.83
2018-07-27T17:30:18.330Z,39.58
2018-07-27T17:32:46.922Z,39.86
2018-07-27T17:35:15.699Z,39.60
2018-07-27T17:37:44.221Z,39.95
2018-07-27T17:40:12.967Z,39.99
2018-07-27T17:42:41.596Z,39.68
2018-07-27T17:45:10.507Z,39.46
2018-07-27T17:47:39.379Z,39.72
2018-07-27T17:50:08.630Z,39.40
2018-07-27T17:52:37.264Z,40.01
2018-07-27T17:55:06.942Z,39.86
2018-07-27T17:57:35.505Z,39.00
2018-07-27T18:00:04.385Z,39.61
2018-07-27T18:02:32.977Z,37.67
2018-07-27T18:05:01.499Z,37.53
2018-07-27T18:07:30.401Z,37.30
2018-07-27T18:09:58.974Z,34.76
2018-07-27T18:12:27.671Z,35.22
2018-07-27T18:14:56.247Z,35.62
2018-07-27T18:17:24.830Z,35.16
2018-07-27T18:19:53.530Z,34.58
2018-07-27T18:22:22.116Z,35.65
2018-07-27T18:24:50.740Z,35.65
2018-07-27T18:27:19.272Z,34.03
2018-07-27T18:29:47.902Z,35.54
2018-07-27T18:32:16.738Z,34.48
2018-07-27T18:34:45.328Z,34.88
2018-07-27T18:37:13.902Z,35.16
2018-07-27T18:39:42.575Z,35.22
2018-07-27T18:42:11.228Z,34.85
2018-07-27T18:44:40.097Z,34.56
2018-07-27T18:47:08.699Z,35.61
2018-07-27T18:49:37.334Z,36.04
2018-07-27T18:52:06.031Z,35.30
2018-07-27T18:54:34.662Z,35.15
2018-07-27T18:57:03.338Z,35.90
2018-07-27T18:59:33.637Z,35.29
2018-07-27T19:02:02.229Z,36.46
2018-07-27T19:04:31.770Z,36.71
2018-07-27T19:07:00.750Z,36.23
2018-07-27T19:09:29.310Z,36.76
2018-07-27T19:11:57.908Z,36.91
2018-07-27T19:14:26.589Z,36.79
2018-07-27T19:16:55.180Z,36.65
2018-07-27T19:19:23.882Z,36.85
2018-07-27T19:21:52.507Z,37.72
2018-07-27T19:24:21.048Z,37.02
2018-07-27T19:26:49.726Z,37.72
2018-07-27T19:29:18.955Z,37.20
2018-07-27T19:31:47.533Z,38.06
2018-07-27T19:34:16.178Z,37.56
2018-07-27T19:36:44.813Z,38.43
2018-07-27T19:39:13.550Z,38.40
2018-07-27T19:41:42.680Z,38.01
2018-07-27T19:44:11.575Z,38.65
2018-07-27T19:46:40.167Z,38.91
2018-07-27T19:49:09.677Z,39.11
2018-07-27T19:51:39.329Z,39.35
2018-07-27T19:54:08.119Z,39.10
2018-07-27T19:56:36.763Z,39.56
2018-07-27T19:59:05.437Z,39.36
2018-07-27T20:01:34.276Z,39.48
2018-07-27T20:04:02.864Z,39.41
2018-07-27T20:06:31.403Z,40.34
2018-07-27T20:09:00.233Z,40.20
2018-07-27T20:11:28.812Z,40.35
2018-07-27T20:13:57.364Z,40.19
2018-07-27T20:16:25.931Z,40.38
2018-07-27T20:18:54.663Z,40.87
2018-07-27T20:21:23.345Z,41.10
2018-07-27T20:23:52.035Z,41.59
2018-07-27T20:26:20.586Z,41.45
2018-07-27T20:28:49.216Z,41.50
2018-07-27T20:31:18.030Z,41.44
2018-07-27T20:33:46.676Z,42.25
2018-07-27T20:36:15.255Z,42.26
2018-07-27T20:38:43.771Z,41.97
2018-07-27T20:41:12.394Z,42.04
2018-07-27T20:43:41.130Z,42.54
2018-07-27T20:46:09.842Z,43.15
2018-07-27T20:48:38.496Z,43.25
2018-07-27T20:51:07.315Z,42.82
2018-07-27T20:53:35.827Z,42.98
2018-07-27T20:56:04.535Z,43.69
2018-07-27T20:58:33.630Z,43.81
2018-07-27T21:01:02.815Z,43.45
2018-07-27T21:03:31.455Z,43.58
2018-07-27T21:06:00.097Z,43.75
2018-07-27T21:08:28.722Z,44.31
2018-07-27T21:10:57.416Z,44.00
2018-07-27T21:13:26.049Z,44.31
2018-07-27T21:15:55.308Z,44.56
2018-07-27T21:18:23.894Z,44.88
2018-07-27T21:20:52.516Z,45.38
2018-07-27T21:23:21.243Z,45.41
2018-07-27T21:25:50.604Z,45.78
2018-07-27T21:28:19.187Z,45.49
2018-07-27T21:30:47.767Z,45.55
2018-07-27T21:33:16.270Z,45.80
2018-07-27T21:35:44.859Z,45.95
2018-07-27T21:38:13.618Z,46.13
2018-07-27T21:40:42.246Z,46.30
2018-07-27T21:43:12.730Z,46.70
2018-07-27T21:45:41.374Z,46.37
2018-07-27T21:48:09.917Z,46.75
2018-07-27T21:50:38.582Z,47.13
2018-07-27T21:53:07.219Z,47.76
2018-07-27T21:55:35.770Z,47.61
2018-07-27T21:58:04.948Z,47.44
2018-07-27T22:00:34.288Z,47.79
2018-07-27T22:03:04.403Z,47.79
2018-07-27T22:05:33.049Z,48.42
2018-07-27T22:08:01.679Z,48.63
2018-07-27T22:10:30.317Z,48.22
2018-07-27T22:12:58.878Z,48.74
2018-07-27T22:15:27.790Z,49.76
2018-07-27T22:17:56.303Z,49.10
2018-07-27T22:20:25.431Z,49.65
2018-07-27T22:22:54.153Z,49.81
2018-07-27T22:25:22.840Z,49.82
2018-07-27T22:27:51.445Z,50.70
2018-07-27T22:30:20.287Z,50.85
2018-07-27T22:32:48.846Z,50.41
2018-07-27T22:35:17.448Z,50.70
2018-07-27T22:37:46.206Z,51.44
2018-07-27T22:40:14.795Z,51.32
2018-07-27T22:42:43.374Z,51.25
2018-07-27T22:45:11.958Z,51.14
2018-07-27T22:47:40.498Z,51.54
2018-07-27T22:50:09.178Z,52.55
2018-07-27T22:52:39.855Z,52.25
2018-07-27T22:55:10.923Z,52.21
2018-07-27T22:57:40.559Z,53.19
2018-07-27T23:00:12.795Z,53.33
2018-07-27T23:02:42.128Z,53.20
2018-07-27T23:05:10.958Z,52.99
2018-07-27T23:07:39.542Z,53.44
2018-07-27T23:10:09.455Z,52.76
2018-07-27T23:12:38.346Z,52.60
2018-07-27T23:15:08.907Z,53.04
2018-07-27T23:17:37.463Z,52.12
2018-07-27T23:20:10.111Z,52.47
2018-07-27T23:22:38.768Z,53.13
2018-07-27T23:25:08.042Z,53.60
2018-07-27T23:27:37.174Z,53.83
2018-07-27T23:30:07.730Z,53.09
2018-07-27T23:32:36.387Z,53.63
2018-07-27T23:35:05.015Z,54.11
2018-07-27T23:37:33.657Z,54.29
2018-07-27T23:40:02.187Z,54.14
2018-07-27T23:42:30.870Z,54.39
2018-07-27T23:44:59.382Z,54.74
2018-07-27T23:47:28.006Z,54.85
2018-07-27T23:49:57.705Z,55.37
2018-07-27T23:52:26.382Z,55.26
2018-07-27T23:54:55.070Z,55.92
2018-07-27T23:57:23.760Z,56.21
2018-07-27T23:59:53.365Z,55.91
